Time;durP1;ratioP1;P1;durP2;ratioP2;P2;SDS_P1;SDS_P2;PMS_P1;PMS_P2;Temp;Humidity;BMP_temperature;BMP_pressure;BME280_temperature;BME280_humidity;BME280_pressure;Samples;Min_cycle;Max_cycle;Signal;HPM_P1;HPM_P2
2022/03/14 00:02:22;;;;;;;11.45;5.03;;;;;;;4.21;28.35;101723.69;5025767;28;20033;-78
2022/03/14 00:04:49;;;;;;;6.97;4.57;;;;;;;4.22;28.16;101720.22;5018929;28;20126;-79
2022/03/14 00:07:15;;;;;;;5.57;4.18;;;;;;;4.23;28.45;101734.06;5037824;28;20494;-80
2022/03/14 00:09:40;;;;;;;7.75;5.18;;;;;;;4.12;28.81;101727.97;5038432;28;20132;-79
2022/03/14 00:12:07;;;;;;;6.70;4.10;;;;;;;4.04;28.79;101729.72;5015441;28;20040;-79
2022/03/14 00:14:33;;;;;;;6.18;4.32;;;;;;;4.04;28.80;101729.72;5021618;28;20037;-77
2022/03/14 00:16:59;;;;;;;10.10;4.40;;;;;;;4.12;28.38;101733.16;5042070;28;20091;-78
2022/03/14 00:19:24;;;;;;;8.35;5.07;;;;;;;4.16;28.62;101729.72;5043319;28;20040;-76
2022/03/14 00:21:50;;;;;;;7.43;4.47;;;;;;;3.96;28.87;101738.34;5022835;28;20043;-77
2022/03/14 00:24:17;;;;;;;9.65;4.65;;;;;;;4.10;28.98;101732.31;5022579;28;20450;-78
2022/03/14 00:26:42;;;;;;;6.38;4.45;;;;;;;4.12;28.78;101740.91;5042177;28;20037;-79
2022/03/14 00:29:08;;;;;;;10.13;5.82;;;;;;;3.98;28.95;101741.78;5024402;28;20066;-78
2022/03/14 00:31:35;;;;;;;8.18;4.93;;;;;;;4.18;28.81;101746.97;5038278;28;20465;-79
2022/03/14 00:34:01;;;;;;;6.93;5.05;;;;;;;4.34;28.30;101755.63;5019970;28;20106;-78
2022/03/14 00:36:28;;;;;;;7.07;4.50;;;;;;;4.36;28.28;101748.72;5027700;28;20128;-77
2022/03/14 00:38:54;;;;;;;8.10;4.78;;;;;;;4.36;28.33;101750.41;5040965;28;20486;-79
2022/03/14 00:41:21;;;;;;;7.75;4.43;;;;;;;4.42;28.22;101748.69;5039757;28;20064;-80
2022/03/14 00:43:47;;;;;;;7.90;4.97;;;;;;;4.52;28.04;101753.88;5035786;28;20407;-77
2022/03/14 00:46:17;;;;;;;7.82;4.75;;;;;;;4.48;28.08;101762.53;5037007;28;20039;-77
2022/03/14 00:48:44;;;;;;;8.80;5.10;;;;;;;4.46;28.22;101759.94;5016760;28;20498;-78
2022/03/14 00:51:10;;;;;;;7.90;4.95;;;;;;;4.40;28.31;101759.91;5041255;28;20493;-80
2022/03/14 00:53:35;;;;;;;11.02;5.10;;;;;;;4.47;28.14;101763.38;5019236;28;20041;-78
2022/03/14 00:56:01;;;;;;;6.13;4.95;;;;;;;4.52;28.32;101767.69;5022114;28;20091;-78
2022/03/14 00:58:29;;;;;;;8.05;5.07;;;;;;;4.63;27.94;101765.97;5036455;28;20106;-80
2022/03/14 01:00:55;;;;;;;9.38;5.53;;;;;;;4.69;28.21;101761.63;5038529;28;20059;-78
2022/03/14 01:03:21;;;;;;;8.25;4.80;;;;;;;4.79;27.94;101759.03;5036615;28;20037;-78
2022/03/14 01:05:47;;;;;;;10.60;5.63;;;;;;;4.82;28.06;101764.19;5041342;28;20414;-78
2022/03/14 01:08:12;;;;;;;9.10;4.85;;;;;;;4.84;28.05;101756.44;5037819;28;20177;-77
2022/03/14 01:10:38;;;;;;;8.48;5.00;;;;;;;4.91;27.98;101768.53;5043321;28;20361;-77
2022/03/14 01:13:04;;;;;;;9.55;4.38;;;;;;;4.86;28.13;101769.38;5037707;28;20044;-78
2022/03/14 01:15:34;;;;;;;9.25;5.35;;;;;;;4.85;27.98;101768.50;5024767;28;20372;-78
2022/03/14 01:18:00;;;;;;;7.70;4.78;;;;;;;4.77;28.29;101778.03;5036432;28;20040;-80
2022/03/14 01:20:26;;;;;;;5.70;4.82;;;;;;;4.95;28.31;101778.03;5037983;28;20033;-78
2022/03/14 01:22:55;;;;;;;8.77;5.10;;;;;;;4.95;28.81;101779.75;5037326;28;20116;-79
2022/03/14 01:25:23;;;;;;;8.40;5.95;;;;;;;4.90;28.64;101782.38;5037956;28;20037;-78
2022/03/14 01:27:50;;;;;;;7.43;4.47;;;;;;;4.98;28.90;101787.53;5020450;28;20041;-77
2022/03/14 01:30:19;;;;;;;8.52;5.22;;;;;;;4.75;28.72;101782.34;5018945;28;20039;-77
2022/03/14 01:32:45;;;;;;;7.03;4.90;;;;;;;4.86;28.63;101790.13;5018363;28;20548;-79
2022/03/14 01:35:11;;;;;;;7.95;5.55;;;;;;;4.79;28.72;101786.66;5019175;28;20489;-77
2022/03/14 01:37:36;;;;;;;8.15;5.32;;;;;;;4.77;28.88;101785.81;5040318;28;20051;-79
2022/03/14 01:40:07;;;;;;;9.80;5.25;;;;;;;4.80;29.00;101784.06;5057474;28;20502;-78
2022/03/14 01:42:32;;;;;;;10.15;5.22;;;;;;;4.76;28.98;101787.50;5060879;28;20111;-77
2022/03/14 01:44:58;;;;;;;7.95;5.45;;;;;;;4.80;28.87;101793.56;5028867;28;20064;-80
2022/03/14 01:47:24;;;;;;;6.80;4.43;;;;;;;4.80;28.95;101785.78;5037106;28;20588;-78
2022/03/14 01:49:49;;;;;;;11.27;5.75;;;;;;;4.77;28.38;101793.56;5019173;28;20551;-78
2022/03/14 01:52:15;;;;;;;9.93;5.30;;;;;;;4.76;28.77;101803.06;5025359;28;20032;-80
2022/03/14 01:54:41;;;;;;;9.38;4.93;;;;;;;4.71;28.61;101794.44;5039683;28;20481;-78
2022/03/14 01:57:08;;;;;;;10.48;5.40;;;;;;;4.54;28.82;101798.75;5021908;28;20037;-77
2022/03/14 01:59:34;;;;;;;8.02;5.40;;;;;;;4.76;28.68;101797.88;5021640;28;20033;-77
2022/03/14 02:02:15;;;;;;;8.38;4.78;;;;;;;4.76;28.50;101799.59;5038141;28;20192;-79
2022/03/14 02:04:45;;;;;;;9.75;5.43;;;;;;;4.79;28.68;101803.06;5018244;28;20052;-78
2022/03/14 02:07:13;;;;;;;8.02;5.15;;;;;;;4.55;28.94;101800.50;5037955;28;20029;-80
2022/03/14 02:09:39;;;;;;;10.38;5.57;;;;;;;4.57;29.22;101796.19;5022029;28;20402;-77
2022/03/14 02:12:08;;;;;;;8.73;5.85;;;;;;;4.72;28.97;101797.88;5038261;28;20119;-78
2022/03/14 02:14:39;;;;;;;7.80;4.82;;;;;;;4.52;29.30;101806.53;5018580;28;20033;-78
2022/03/14 02:17:15;;;;;;;9.82;5.57;;;;;;;4.66;29.34;101803.09;5020029;28;20108;-78
2022/03/14 02:19:41;;;;;;;12.18;5.43;;;;;;;4.57;29.20;101809.97;5034700;28;20040;-77
2022/03/14 02:22:13;;;;;;;7.45;4.65;;;;;;;4.45;29.52;101820.31;5012637;28;20044;-78
2022/03/14 02:24:43;;;;;;;9.30;5.07;;;;;;;4.37;29.52;101807.38;5001965;28;20599;-79
2022/03/14 02:27:08;;;;;;;13.85;6.57;;;;;;;4.39;29.52;101810.84;5035535;28;20048;-78
2022/03/14 02:29:34;;;;;;;7.97;4.03;;;;;;;4.45;29.31;101815.13;5038608;28;20032;-79
2022/03/14 02:31:59;;;;;;;9.77;4.45;;;;;;;4.40;29.65;101819.44;5035895;28;20612;-77
2022/03/14 02:34:25;;;;;;;9.88;5.95;;;;;;;4.43;29.60;101817.75;5023174;28;20045;-82
2022/03/14 02:36:51;;;;;;;6.55;4.50;;;;;;;4.46;30.13;101816.03;5041591;28;20094;-78
2022/03/14 02:39:16;;;;;;;8.02;4.60;;;;;;;4.36;30.66;101825.47;5020301;28;20128;-78
2022/03/14 02:41:42;;;;;;;9.85;5.20;;;;;;;4.34;30.23;101828.09;5036747;28;20040;-77
2022/03/14 02:44:08;;;;;;;13.70;5.45;;;;;;;4.50;30.25;101833.25;5018890;28;20048;-78
2022/03/14 02:46:36;;;;;;;7.43;5.55;;;;;;;4.56;30.18;101822.91;5044952;28;20193;-81
2022/03/14 02:49:01;;;;;;;7.88;4.90;;;;;;;4.51;30.35;101824.66;5001270;28;20470;-76
2022/03/14 02:51:28;;;;;;;8.70;5.32;;;;;;;4.46;30.44;101826.38;5041719;28;20309;-77
2022/03/14 02:53:57;;;;;;;14.82;5.10;;;;;;;4.52;30.22;101828.94;5038745;28;20124;-79
2022/03/14 02:56:23;;;;;;;8.18;5.07;;;;;;;4.55;30.18;101818.63;5023934;28;20029;-78
2022/03/14 02:58:51;;;;;;;9.05;5.30;;;;;;;4.52;29.94;101826.34;5037903;28;20052;-78
2022/03/14 03:01:18;;;;;;;9.30;4.63;;;;;;;4.56;29.82;101833.28;5020047;28;20056;-79
2022/03/14 03:03:44;;;;;;;10.05;5.30;;;;;;;4.51;29.51;101830.69;5037055;28;20053;-77
2022/03/14 03:06:12;;;;;;;11.23;5.72;;;;;;;4.56;29.85;101834.13;5023099;28;20401;-79
2022/03/14 03:08:38;;;;;;;8.35;5.55;;;;;;;4.57;29.86;101835.00;5023847;28;20049;-78
2022/03/14 03:11:08;;;;;;;9.15;5.22;;;;;;;4.58;29.84;101839.31;5022568;28;20559;-78
2022/03/14 03:13:34;;;;;;;9.13;5.57;;;;;;;4.62;29.86;101844.50;5024140;28;20442;-79
2022/03/14 03:16:00;;;;;;;10.30;5.45;;;;;;;4.64;29.97;101847.09;5026680;28;20044;-78
2022/03/14 03:18:26;;;;;;;8.18;4.93;;;;;;;4.63;29.89;101851.41;5044454;28;20600;-80
2022/03/14 03:20:51;;;;;;;8.20;5.18;;;;;;;4.63;29.86;101854.00;5024019;28;20430;-78
2022/03/14 03:23:18;;;;;;;10.43;5.38;;;;;;;4.49;29.89;101852.25;5041781;28;20080;-79
2022/03/14 03:25:44;;;;;;;11.48;5.65;;;;;;;4.56;29.93;101853.97;5040309;28;20048;-79
2022/03/14 03:28:09;;;;;;;8.38;4.80;;;;;;;4.47;30.06;101848.81;5025527;28;20268;-77
2022/03/14 03:30:34;;;;;;;10.75;5.75;;;;;;;4.45;30.16;101855.69;5024145;28;20033;-78
2022/03/14 03:33:00;;;;;;;8.57;5.20;;;;;;;4.52;30.17;101860.00;5023465;28;20505;-79
2022/03/14 03:35:25;;;;;;;10.98;5.93;;;;;;;4.47;30.19;101864.34;5041877;28;20028;-79
2022/03/14 03:37:51;;;;;;;8.55;5.07;;;;;;;4.45;30.32;101866.91;5038513;28;20064;-78
2022/03/14 03:40:16;;;;;;;8.80;5.20;;;;;;;4.60;30.11;101869.53;5046808;28;20548;-80
2022/03/14 03:42:42;;;;;;;7.78;5.10;;;;;;;4.56;30.23;101865.19;5024187;28;20052;-78
2022/03/14 03:45:08;;;;;;;11.05;6.07;;;;;;;4.64;30.13;101867.81;5041584;28;20052;-78
2022/03/14 03:47:34;;;;;;;10.23;5.95;;;;;;;4.67;30.28;101872.97;5012488;28;20048;-79
2022/03/14 03:50:00;;;;;;;8.48;5.72;;;;;;;4.73;30.27;101873.00;5038283;28;20033;-78
2022/03/14 03:52:26;;;;;;;13.70;5.55;;;;;;;4.70;30.55;101883.38;5042194;28;20048;-78
2022/03/14 03:54:52;;;;;;;8.98;5.60;;;;;;;4.73;30.84;101880.75;5023527;28;20035;-79
2022/03/14 03:57:17;;;;;;;7.85;5.25;;;;;;;4.70;30.78;101882.47;5048879;28;20129;-78
2022/03/14 03:59:43;;;;;;;7.70;4.82;;;;;;;4.73;30.60;101887.69;5063726;28;20029;-79
2022/03/14 04:02:09;;;;;;;10.13;4.93;;;;;;;4.73;31.22;101898.88;5041829;28;20028;-78
2022/03/14 04:04:37;;;;;;;9.80;5.45;;;;;;;4.77;31.15;101887.69;5044343;28;20021;-80
2022/03/14 04:07:06;;;;;;;6.95;5.18;;;;;;;4.88;30.89;101899.78;5020299;28;20053;-80
2022/03/14 04:09:31;;;;;;;9.10;4.90;;;;;;;4.88;31.03;101900.66;5028416;28;20041;-78
2022/03/14 04:11:57;;;;;;;7.50;4.82;;;;;;;4.80;30.98;101903.19;5042419;28;20474;-80
2022/03/14 04:14:22;;;;;;;8.27;5.45;;;;;;;4.83;31.03;101900.63;5038866;28;20484;-79
2022/03/14 04:16:48;;;;;;;11.75;4.88;;;;;;;4.57;30.73;101902.34;5042870;28;20159;-79
2022/03/14 04:19:16;;;;;;;15.20;5.80;;;;;;;4.80;30.90;101904.94;5037879;28;20040;-79
2022/03/14 04:21:52;;;;;;;18.13;6.20;;;;;;;4.89;30.57;101904.97;5021543;28;20048;-77
2022/03/14 04:24:18;;;;;;;9.60;5.95;;;;;;;4.90;31.30;101917.09;5021966;28;20560;-78
2022/03/14 04:26:46;;;;;;;12.20;5.88;;;;;;;4.86;30.66;101915.31;5037440;28;20068;-76
2022/03/14 04:29:13;;;;;;;12.00;5.25;;;;;;;4.86;31.05;101919.63;5025345;28;20310;-78
2022/03/14 04:31:38;;;;;;;9.07;6.03;;;;;;;4.80;31.51;101925.66;5036375;28;20029;-79
2022/03/14 04:34:04;;;;;;;8.88;5.05;;;;;;;4.73;31.86;101919.59;5020802;28;20060;-79
2022/03/14 04:36:29;;;;;;;10.88;5.82;;;;;;;4.68;32.38;101926.53;5021828;28;20433;-79
2022/03/14 04:38:55;;;;;;;8.32;5.55;;;;;;;4.54;32.89;101925.63;5020092;28;20033;-77
2022/03/14 04:41:21;;;;;;;11.50;5.95;;;;;;;4.50;33.68;101936.81;5043102;28;20373;-79
2022/03/14 04:43:46;;;;;;;10.82;5.20;;;;;;;4.48;33.85;101931.66;5023298;28;20075;-80
2022/03/14 04:46:12;;;;;;;13.15;5.85;;;;;;;4.45;34.76;101938.53;5021938;28;20171;-78
2022/03/14 04:48:38;;;;;;;10.75;6.05;;;;;;;4.48;35.25;101947.19;5035858;28;20092;-78
2022/03/14 04:51:04;;;;;;;9.23;5.43;;;;;;;4.48;35.49;101948.91;5021341;28;20036;-78
2022/03/14 04:53:29;;;;;;;10.18;6.00;;;;;;;4.47;35.61;101942.00;5045963;28;20045;-77
2022/03/14 04:55:55;;;;;;;9.18;5.35;;;;;;;4.49;35.71;101950.63;5037636;28;20025;-78
2022/03/14 04:58:21;;;;;;;13.05;6.45;;;;;;;4.50;35.88;101950.66;5041293;28;20504;-77
2022/03/14 05:00:47;;;;;;;9.88;6.00;;;;;;;4.47;35.89;101957.53;5039775;28;20090;-77
2022/03/14 05:03:14;;;;;;;9.13;5.43;;;;;;;4.49;36.14;101958.41;5038763;28;20514;-78
2022/03/14 05:05:40;;;;;;;9.23;5.38;;;;;;;4.55;36.27;101956.69;5036717;28;20036;-78
2022/03/14 05:08:05;;;;;;;12.00;6.97;;;;;;;4.63;36.01;101964.47;5021872;28;20050;-78
2022/03/14 05:10:32;;;;;;;10.38;5.65;;;;;;;4.62;36.46;101973.13;5009099;28;20066;-77
2022/03/14 05:12:59;;;;;;;10.55;6.07;;;;;;;4.58;36.88;101967.03;4997429;28;20041;-80
2022/03/14 05:15:24;;;;;;;10.63;5.63;;;;;;;4.55;36.77;101968.78;5037002;28;20049;-77
2022/03/14 05:17:53;;;;;;;10.60;5.95;;;;;;;4.55;36.53;101973.97;5020695;28;20052;-78
2022/03/14 05:20:19;;;;;;;13.93;6.60;;;;;;;4.49;36.16;101966.16;5041216;28;20060;-79
2022/03/14 05:22:48;;;;;;;16.75;7.03;;;;;;;4.55;36.58;101969.66;5024598;28;20049;-78
2022/03/14 05:25:14;;;;;;;13.88;6.45;;;;;;;4.54;36.33;101964.44;5024367;28;20041;-80
2022/03/14 05:27:40;;;;;;;11.07;6.03;;;;;;;4.53;36.57;101975.69;5041194;28;20044;-78
2022/03/14 05:30:09;;;;;;;13.50;7.15;;;;;;;4.50;36.58;101976.53;5022806;28;20254;-79
2022/03/14 05:32:36;;;;;;;12.27;6.72;;;;;;;4.50;37.15;101975.66;5020975;28;20044;-78
2022/03/14 05:35:03;;;;;;;12.50;6.80;;;;;;;4.53;37.20;101978.28;5022885;28;20032;-78
2022/03/14 05:37:28;;;;;;;11.57;6.43;;;;;;;4.58;37.08;101981.72;5020417;28;20049;-79
2022/03/14 05:39:54;;;;;;;8.65;6.47;;;;;;;4.65;37.11;101978.28;5020047;28;20122;-79
2022/03/14 05:42:20;;;;;;;10.63;7.07;;;;;;;4.62;37.39;101979.16;5041248;28;20113;-80
2022/03/14 05:44:45;;;;;;;10.77;6.47;;;;;;;4.56;37.61;101986.03;5024554;28;20041;-79
2022/03/14 05:47:11;;;;;;;10.38;6.18;;;;;;;4.53;38.21;101983.44;5025569;28;20490;-78
2022/03/14 05:49:37;;;;;;;11.90;6.20;;;;;;;4.54;38.22;101992.94;5042382;28;20075;-78
2022/03/14 05:52:03;;;;;;;13.18;6.60;;;;;;;4.59;38.82;101991.25;5021352;28;20480;-80
2022/03/14 05:54:28;;;;;;;9.05;6.65;;;;;;;4.66;38.54;101985.22;5025582;28;20040;-79
2022/03/14 05:56:58;;;;;;;12.02;6.80;;;;;;;4.62;38.54;101999.88;5042808;28;20032;-79
2022/03/14 05:59:23;;;;;;;8.27;6.03;;;;;;;4.50;38.82;101998.94;5019596;28;20055;-78
2022/03/14 06:01:50;;;;;;;10.75;6.95;;;;;;;4.37;39.40;102004.09;5023297;28;20033;-81
2022/03/14 06:04:16;;;;;;;9.40;6.38;;;;;;;4.23;39.98;102008.38;5023008;28;20045;-79
2022/03/14 06:06:42;;;;;;;13.25;8.15;;;;;;;4.08;40.55;102013.47;5020736;28;20040;-78
2022/03/14 06:09:08;;;;;;;15.00;7.28;;;;;;;3.97;41.36;102008.22;5041049;28;20098;-80
2022/03/14 06:11:34;;;;;;;10.90;6.28;;;;;;;4.04;41.32;102019.47;5037744;28;20053;-77
2022/03/14 06:14:01;;;;;;;12.32;8.02;;;;;;;3.91;42.39;102024.56;5041117;28;20178;-77
2022/03/14 06:16:26;;;;;;;14.50;7.45;;;;;;;3.94;42.79;102027.19;5038456;28;20032;-79
2022/03/14 06:18:52;;;;;;;11.90;7.63;;;;;;;4.00;43.47;102047.03;5036785;28;20127;-80
2022/03/14 06:21:18;;;;;;;11.60;7.90;;;;;;;4.06;43.36;102054.84;5026891;28;20162;-80
2022/03/14 06:23:43;;;;;;;17.08;7.65;;;;;;;3.84;45.54;102046.06;5043482;28;20126;-79
2022/03/14 06:26:09;;;;;;;15.32;7.78;;;;;;;3.34;47.80;102051.72;5040854;28;20040;-78
2022/03/14 06:28:34;;;;;;;14.40;8.52;;;;;;;3.16;48.47;102063.56;5042493;28;20052;-78
2022/03/14 06:31:00;;;;;;;14.68;8.35;;;;;;;3.35;48.50;102063.78;5023133;28;20051;-79
2022/03/14 06:33:25;;;;;;;12.75;7.97;;;;;;;3.49;48.23;102061.31;5041001;28;20036;-80
2022/03/14 06:35:51;;;;;;;18.23;9.07;;;;;;;3.30;49.19;102060.28;5041014;28;20120;-79
2022/03/14 06:38:16;;;;;;;17.58;9.05;;;;;;;3.55;48.75;102067.41;5026093;28;20044;-78
2022/03/14 06:40:42;;;;;;;14.30;7.93;;;;;;;3.71;48.59;102062.34;5040285;28;20048;-80
2022/03/14 06:43:11;;;;;;;15.85;8.30;;;;;;;3.87;48.34;102077.13;5045823;28;20791;-80
2022/03/14 06:45:39;;;;;;;14.48;9.07;;;;;;;3.95;48.91;102077.19;5041032;28;20251;-80
2022/03/14 06:48:06;;;;;;;18.00;9.50;;;;;;;4.02;48.54;102085.00;5045111;28;20056;-78
2022/03/14 06:50:32;;;;;;;13.73;8.18;;;;;;;4.05;48.66;102085.88;5008807;28;20124;-79
2022/03/14 06:52:58;;;;;;;15.85;9.05;;;;;;;3.99;48.79;102094.47;5039781;28;20125;-77
2022/03/14 06:55:24;;;;;;;13.38;8.27;;;;;;;3.86;49.32;102088.34;5042128;28;20394;-78
2022/03/14 06:57:50;;;;;;;15.65;8.43;;;;;;;3.69;50.64;102105.44;5039926;28;20044;-79
2022/03/14 07:00:16;;;;;;;17.48;9.75;;;;;;;3.65;50.70;102104.56;5043744;28;20037;-77
2022/03/14 07:02:42;;;;;;;20.27;9.88;;;;;;;3.65;51.52;102111.41;5025240;28;20237;-76
2022/03/14 07:05:18;;;;;;;23.50;10.93;;;;;;;3.64;52.09;102113.16;5026410;28;20361;-79
2022/03/14 07:07:45;;;;;;;17.17;9.13;;;;;;;3.68;51.84;102114.06;5038703;28;20041;-80
2022/03/14 07:10:12;;;;;;;14.38;9.40;;;;;;;3.72;51.76;102121.84;5023036;28;20033;-79
2022/03/14 07:12:47;;;;;;;14.10;9.00;;;;;;;3.79;52.43;102125.34;5021497;28;20055;-78
2022/03/14 07:15:20;;;;;;;16.00;8.15;;;;;;;3.90;52.59;102126.31;5016729;28;20418;-76
2022/03/14 07:17:49;;;;;;;18.27;8.95;;;;;;;4.13;52.27;102128.19;5020370;28;20049;-77
2022/03/14 07:20:18;;;;;;;18.67;10.32;;;;;;;3.95;53.51;102129.78;5040084;28;20036;-78
2022/03/14 07:23:02;;;;;;;19.90;9.73;;;;;;;4.12;53.50;102129.03;5021226;28;20311;-81
2022/03/14 07:25:31;;;;;;;17.25;8.73;;;;;;;4.27;53.08;102141.22;5009997;28;20796;-77
2022/03/14 07:28:00;;;;;;;15.52;8.48;;;;;;;4.48;52.94;102135.31;5030354;28;20051;-78
2022/03/14 07:30:26;;;;;;;18.50;8.50;;;;;;;4.54;52.92;102135.34;5022241;28;20462;-80
2022/03/14 07:32:52;;;;;;;15.45;8.10;;;;;;;4.65;53.05;102144.03;5020336;28;20048;-79
2022/03/14 07:35:18;;;;;;;18.85;8.95;;;;;;;4.60;53.42;102140.56;5024010;28;20029;-79
2022/03/14 07:37:44;;;;;;;16.98;8.90;;;;;;;4.59;53.66;102141.44;5023290;28;20470;-78
2022/03/14 07:40:11;;;;;;;14.70;9.35;;;;;;;4.63;53.62;102150.91;5027151;28;20170;-79
2022/03/14 07:42:44;;;;;;;14.50;8.35;;;;;;;4.69;53.73;102158.72;5037621;28;20127;-78
2022/03/14 07:45:12;;;;;;;11.55;7.88;;;;;;;4.72;54.07;102163.94;5007729;28;20044;-79
2022/03/14 07:47:39;;;;;;;17.73;8.60;;;;;;;4.71;54.44;102164.78;5005334;28;20159;-80
2022/03/14 07:50:06;;;;;;;13.07;8.70;;;;;;;4.78;54.52;102170.88;5023014;28;20032;-79
2022/03/14 07:52:32;;;;;;;10.82;7.72;;;;;;;4.82;54.67;102168.28;5021715;28;20086;-76
2022/03/14 07:54:59;;;;;;;11.77;8.27;;;;;;;4.91;54.77;102167.50;5022599;28;20033;-79
2022/03/14 07:57:24;;;;;;;15.10;7.82;;;;;;;5.04;54.74;102169.28;5037845;28;20368;-79
2022/03/14 07:59:51;;;;;;;13.85;7.85;;;;;;;5.14;54.57;102159.81;5047285;28;20021;-79
2022/03/14 08:02:16;;;;;;;14.75;9.25;;;;;;;5.25;54.49;102159.84;5044383;28;20032;-80
2022/03/14 08:04:42;;;;;;;15.02;9.25;;;;;;;4.78;56.30;102161.34;5021806;28;20044;-79
2022/03/14 08:07:08;;;;;;;14.88;8.25;;;;;;;5.19;55.35;102160.72;5027950;28;20029;-76
2022/03/14 08:09:33;;;;;;;14.90;8.63;;;;;;;5.29;55.65;102164.19;5023206;28;20391;-78
2022/03/14 08:12:00;;;;;;;15.65;8.43;;;;;;;5.30;55.59;102173.72;5039007;28;20124;-82
2022/03/14 08:14:27;;;;;;;15.50;7.75;;;;;;;5.38;55.58;102176.31;5004812;28;20063;-77
2022/03/14 08:16:53;;;;;;;16.45;8.52;;;;;;;5.09;57.18;102177.06;5021199;28;20071;-78
2022/03/14 08:19:20;;;;;;;13.05;8.10;;;;;;;5.35;56.53;102176.31;5037324;28;20044;-80
2022/03/14 08:21:46;;;;;;;14.02;7.95;;;;;;;5.57;55.98;102182.38;5037122;28;20056;-80
2022/03/14 08:24:13;;;;;;;11.23;7.97;;;;;;;5.23;56.96;102180.59;5019760;28;20120;-78
2022/03/14 08:26:39;;;;;;;13.15;8.38;;;;;;;5.52;56.74;102186.72;5029580;28;20224;-80
2022/03/14 08:29:05;;;;;;;15.15;8.50;;;;;;;5.42;56.84;102186.69;5043082;28;20353;-78
2022/03/14 08:31:34;;;;;;;17.23;8.73;;;;;;;4.99;58.35;102185.69;5046332;28;20033;-78
2022/03/14 08:34:00;;;;;;;13.10;7.78;;;;;;;5.70;56.66;102180.69;5025233;28;20053;-78
2022/03/14 08:36:27;;;;;;;13.73;7.63;;;;;;;5.62;57.08;102186.75;5026477;28;20513;-80
2022/03/14 08:38:58;;;;;;;11.70;7.25;;;;;;;5.50;57.52;102188.44;5020996;28;20041;-78
2022/03/14 08:41:24;;;;;;;14.75;7.07;;;;;;;5.75;56.93;102191.94;5013597;28;20056;-83
2022/03/14 08:43:50;;;;;;;13.13;7.18;;;;;;;5.84;56.97;102194.56;5029970;28;20041;-79
2022/03/14 08:46:16;;;;;;;11.02;7.68;;;;;;;5.67;57.58;102197.97;5040621;28;20120;-80
2022/03/14 08:48:42;;;;;;;14.57;8.80;;;;;;;5.82;57.12;102198.88;5035198;28;20514;-76
2022/03/14 08:51:08;;;;;;;18.23;9.27;;;;;;;5.92;57.40;102202.34;5021931;28;20171;-79
2022/03/14 08:53:34;;;;;;;14.50;8.73;;;;;;;6.04;56.97;102203.22;5039744;28;20059;-79
2022/03/14 08:56:03;;;;;;;12.43;7.78;;;;;;;5.84;57.77;102207.53;5022342;28;20082;-77
2022/03/14 08:58:31;;;;;;;12.07;7.72;;;;;;;5.88;57.61;102201.47;5038763;28;20064;-78
2022/03/14 09:00:59;;;;;;;14.05;7.57;;;;;;;6.09;57.38;102204.06;5015093;28;20064;-78
2022/03/14 09:03:26;;;;;;;15.75;7.70;;;;;;;6.01;58.12;102208.38;5015654;28;20098;-80
2022/03/14 09:05:56;;;;;;;11.77;6.65;;;;;;;5.69;59.14;102208.38;5022160;28;20098;-81
2022/03/14 09:08:26;;;;;;;13.68;8.18;;;;;;;6.27;57.74;102211.00;5026912;28;20045;-78
2022/03/14 09:10:53;;;;;;;11.07;7.28;;;;;;;5.96;58.56;102214.47;5020975;28;20048;-79
2022/03/14 09:13:21;;;;;;;10.90;6.60;;;;;;;5.90;59.06;102214.44;5019835;28;20040;-77
2022/03/14 09:15:48;;;;;;;9.75;6.20;;;;;;;6.15;58.63;102215.31;5024898;28;20102;-76
2022/03/14 09:18:18;;;;;;;12.18;6.78;;;;;;;6.24;58.53;102217.94;5037063;28;20132;-81
2022/03/14 09:20:44;;;;;;;9.82;6.18;;;;;;;5.91;59.22;102221.38;5003528;28;20029;-77
2022/03/14 09:23:10;;;;;;;10.98;6.00;;;;;;;6.36;58.53;102230.94;5016958;28;20060;-76
2022/03/14 09:25:36;;;;;;;12.65;7.05;;;;;;;6.46;57.79;102232.66;5036754;28;20039;-79
2022/03/14 09:28:03;;;;;;;9.77;5.95;;;;;;;6.46;58.02;102223.97;5038694;28;20063;-77
2022/03/14 09:30:29;;;;;;;12.32;6.50;;;;;;;6.44;58.39;102229.19;5039465;28;20051;-79
2022/03/14 09:32:55;;;;;;;10.93;6.40;;;;;;;6.56;58.45;102237.84;5036993;28;20053;-78
2022/03/14 09:35:23;;;;;;;10.57;6.63;;;;;;;6.35;58.38;102230.91;5006821;28;20060;-78
2022/03/14 09:37:49;;;;;;;13.10;6.30;;;;;;;6.18;59.24;102230.91;5016370;28;20491;-78
2022/03/14 09:40:17;;;;;;;9.95;6.35;;;;;;;6.29;58.83;102230.06;5020532;28;20041;-79
2022/03/14 09:42:44;;;;;;;10.90;6.05;;;;;;;6.24;59.37;102241.31;5021161;28;20410;-77
2022/03/14 09:45:12;;;;;;;12.50;6.93;;;;;;;6.14;59.62;102239.56;5042140;28;20036;-77
2022/03/14 09:47:40;;;;;;;14.63;7.07;;;;;;;5.91;60.36;102243.00;5038149;28;20194;-78
2022/03/14 09:50:11;;;;;;;12.27;6.10;;;;;;;6.28;59.19;102238.75;5022587;28;20496;-77
2022/03/14 09:52:42;;;;;;;10.50;6.70;;;;;;;6.48;58.76;102243.03;5040855;28;20083;-80
2022/03/14 09:55:10;;;;;;;13.70;6.68;;;;;;;6.72;58.54;102242.13;5041193;28;20139;-81
2022/03/14 09:57:37;;;;;;;10.43;6.03;;;;;;;6.72;58.53;102239.53;5038456;28;20051;-80
2022/03/14 10:00:10;;;;;;;15.80;8.70;;;;;;;6.83;57.92;102242.97;5034250;28;20311;-80
2022/03/14 10:02:40;;;;;;;15.77;6.82;;;;;;;6.81;58.17;102242.13;5034597;28;20044;-79
2022/03/14 10:05:08;;;;;;;11.80;6.38;;;;;;;6.76;58.41;102249.06;5040456;28;20107;-79
2022/03/14 10:07:34;;;;;;;9.35;6.45;;;;;;;6.90;58.13;102244.69;5034233;28;20075;-75
2022/03/14 10:10:04;;;;;;;14.00;7.05;;;;;;;6.85;58.40;102253.38;5034746;28;20144;-78
2022/03/14 10:12:30;;;;;;;11.90;7.38;;;;;;;6.65;59.18;102253.41;5018002;28;20422;-78
2022/03/14 10:14:56;;;;;;;12.00;6.90;;;;;;;6.48;59.61;102256.91;5038019;28;20040;-75
2022/03/14 10:17:21;;;;;;;12.57;7.20;;;;;;;6.79;58.66;102255.97;5028376;28;20517;-79
2022/03/14 10:19:55;;;;;;;12.18;6.90;;;;;;;7.05;58.13;102259.38;5008048;28;20032;-78
2022/03/14 10:22:21;;;;;;;15.10;7.65;;;;;;;6.71;59.30;102258.63;5033833;28;20037;-78
2022/03/14 10:24:48;;;;;;;10.07;7.07;;;;;;;7.09;58.33;102260.25;5033254;28;20044;-78
2022/03/14 10:27:18;;;;;;;11.75;7.38;;;;;;;7.10;58.12;102259.38;5032799;28;20025;-80
2022/03/14 10:29:49;;;;;;;13.05;7.22;;;;;;;7.09;58.44;102260.25;4998186;28;20498;-78
2022/03/14 10:32:33;;;;;;;11.50;6.60;;;;;;;7.04;58.10;102269.78;5017599;28;20888;-77
2022/03/14 10:35:07;;;;;;;10.77;6.80;;;;;;;6.82;59.23;102271.56;5010690;28;20041;-77
2022/03/14 10:37:35;;;;;;;10.35;6.15;;;;;;;6.91;59.01;102274.16;5028855;28;20033;-80
2022/03/14 10:40:06;;;;;;;11.32;7.47;;;;;;;7.09;58.69;102268.06;5028802;28;20059;-79
2022/03/14 10:42:40;;;;;;;10.25;6.95;;;;;;;6.95;59.11;102270.66;5014301;28;20106;-76
2022/03/14 10:45:17;;;;;;;12.63;6.82;;;;;;;6.59;59.44;102266.41;5032493;28;20037;-75
2022/03/14 10:47:47;;;;;;;14.10;6.95;;;;;;;7.08;58.92;102274.09;5010898;28;20037;-78
2022/03/14 10:50:36;;;;;;;10.18;6.80;;;;;;;6.74;59.86;102274.19;5014173;28;20056;-75
2022/03/14 10:53:06;;;;;;;11.27;7.40;;;;;;;7.11;58.93;102269.78;5013972;28;20045;-75
2022/03/14 10:55:41;;;;;;;10.18;7.55;;;;;;;6.98;59.06;102272.41;5032598;28;20020;-80
2022/03/14 10:58:17;;;;;;;11.75;7.78;;;;;;;7.37;57.66;102273.13;5031249;28;20032;-77
2022/03/14 11:00:49;;;;;;;8.93;6.90;;;;;;;7.21;58.46;102275.78;5026815;28;20433;-76
2022/03/14 11:03:26;;;;;;;11.18;7.30;;;;;;;7.19;58.87;102274.06;5014040;28;20084;-79
2022/03/14 11:05:54;;;;;;;10.48;7.18;;;;;;;6.96;58.92;102280.22;5017133;28;20035;-78
2022/03/14 11:08:29;;;;;;;10.43;7.05;;;;;;;7.35;58.29;102277.47;5037742;28;20045;-79
2022/03/14 11:10:55;;;;;;;12.52;7.53;;;;;;;7.57;57.77;102276.53;5041179;28;20056;-78
2022/03/14 11:13:21;;;;;;;16.80;7.93;;;;;;;7.48;58.38;102279.16;5038595;28;20041;-76
2022/03/14 11:15:46;;;;;;;11.15;7.35;;;;;;;7.54;58.32;102281.75;5025704;28;20592;-79
2022/03/14 11:18:13;;;;;;;13.90;8.07;;;;;;;7.44;58.36;102288.69;5038975;28;20483;-77
2022/03/14 11:20:39;;;;;;;13.30;8.45;;;;;;;7.51;58.21;102290.44;5020546;28;20041;-79
2022/03/14 11:23:06;;;;;;;12.20;7.78;;;;;;;7.18;58.79;102286.22;5047919;28;20048;-78
2022/03/14 11:25:33;;;;;;;12.13;7.60;;;;;;;7.25;58.28;102287.91;5025906;28;20137;-76
2022/03/14 11:27:59;;;;;;;12.75;7.82;;;;;;;7.44;58.10;102293.91;5023051;28;20044;-80
2022/03/14 11:30:26;;;;;;;9.95;7.35;;;;;;;6.81;60.04;102290.63;5011134;28;20095;-78